PVI398 KSEZ-KFLG
Flight info
| Callsign | PVI398 |
|---|---|
| Flight time | 0h 43m |
| Altitude | 6500 |
| Route | SIDTY MMRKK ZAMAB |
| Aircraft | C185/L-VGD/A |
Departure
| Time | 2026-04-19 09:16 |
|---|---|
| Airport | Sedona Airport (KSEZ) |
Arrival
| Time | 2026-04-19 10:00 |
|---|---|
| Airport | Flagstaff Pulliam Airport (KFLG) |
| Time | Latitude | Longitude | Altitude | Speed | Heading |
|---|---|---|---|---|---|
| 2026-04-19 09:08 | 34.84918 | -111.78990 | 4789 ft | 0 kts | 317° |
| 2026-04-19 09:12 | 34.84903 | -111.79028 | 4788 ft | 11 kts | 225° |
| 2026-04-19 09:13 | 34.84832 | -111.79040 | 4779 ft | 16 kts | 203° |
| 2026-04-19 09:13 | 34.84749 | -111.79145 | 4770 ft | 19 kts | 222° |
| 2026-04-19 09:13 | 34.84659 | -111.79217 | 4769 ft | 6 kts | 160° |
| 2026-04-19 09:13 | 34.84644 | -111.79228 | 4765 ft | 9 kts | 234° |
| 2026-04-19 09:14 | 34.84569 | -111.79314 | 4754 ft | 18 kts | 201° |
| 2026-04-19 09:14 | 34.84546 | -111.79320 | 4753 ft | 0 kts | 171° |
| 2026-04-19 09:15 | 34.84545 | -111.79320 | 4753 ft | 2 kts | 171° |
| 2026-04-19 09:15 | 34.84597 | -111.79177 | 4766 ft | 39 kts | 39° |
| 2026-04-19 09:16 | 34.84877 | -111.78821 | 4917 ft | 69 kts | 52° |
| 2026-04-19 09:16 | 34.85238 | -111.78342 | 5093 ft | 89 kts | 43° |
| 2026-04-19 09:16 | 34.85514 | -111.77603 | 5323 ft | 108 kts | 83° |
| 2026-04-19 09:16 | 34.85240 | -111.76732 | 5534 ft | 118 kts | 130° |
| 2026-04-19 09:17 | 34.84494 | -111.76382 | 5750 ft | 121 kts | 179° |
| 2026-04-19 09:17 | 34.83765 | -111.76873 | 5962 ft | 126 kts | 234° |
| 2026-04-19 09:17 | 34.83599 | -111.77887 | 6162 ft | 123 kts | 275° |
| 2026-04-19 09:17 | 34.83621 | -111.78927 | 6357 ft | 123 kts | 270° |
| 2026-04-19 09:18 | 34.83617 | -111.79963 | 6579 ft | 122 kts | 268° |
| 2026-04-19 09:18 | 34.83265 | -111.80842 | 6752 ft | 117 kts | 213° |
| 2026-04-19 09:18 | 34.82521 | -111.81086 | 6937 ft | 110 kts | 168° |
| 2026-04-19 09:18 | 34.81832 | -111.80727 | 7129 ft | 108 kts | 152° |
| 2026-04-19 09:19 | 34.81171 | -111.80340 | 7322 ft | 106 kts | 153° |
| 2026-04-19 09:19 | 34.80497 | -111.79939 | 7488 ft | 109 kts | 153° |
| 2026-04-19 09:19 | 34.79787 | -111.79517 | 7501 ft | 117 kts | 153° |
| 2026-04-19 09:19 | 34.79031 | -111.79066 | 7513 ft | 125 kts | 152° |
| 2026-04-19 09:20 | 34.78249 | -111.78600 | 7507 ft | 128 kts | 151° |
| 2026-04-19 09:20 | 34.77452 | -111.78126 | 7509 ft | 127 kts | 149° |
| 2026-04-19 09:20 | 34.76706 | -111.77574 | 7499 ft | 122 kts | 126° |
| 2026-04-19 09:20 | 34.76464 | -111.76631 | 7497 ft | 118 kts | 85° |
| 2026-04-19 09:21 | 34.76623 | -111.75654 | 7505 ft | 118 kts | 76° |
| 2026-04-19 09:21 | 34.76785 | -111.74696 | 7498 ft | 114 kts | 78° |
| 2026-04-19 09:21 | 34.76950 | -111.73728 | 7497 ft | 122 kts | 77° |
| 2026-04-19 09:21 | 34.77127 | -111.72681 | 7497 ft | 130 kts | 78° |
| 2026-04-19 09:22 | 34.77308 | -111.71597 | 7492 ft | 131 kts | 79° |
| 2026-04-19 09:22 | 34.77491 | -111.70505 | 7499 ft | 132 kts | 78° |
| 2026-04-19 09:22 | 34.77674 | -111.69410 | 7494 ft | 131 kts | 78° |
| 2026-04-19 09:22 | 34.77854 | -111.68338 | 7491 ft | 128 kts | 79° |
| 2026-04-19 09:23 | 34.78032 | -111.67275 | 7490 ft | 126 kts | 78° |
| 2026-04-19 09:23 | 34.78208 | -111.66225 | 7491 ft | 128 kts | 78° |
| 2026-04-19 09:23 | 34.78383 | -111.65173 | 7492 ft | 126 kts | 79° |
| 2026-04-19 09:23 | 34.78559 | -111.64123 | 7489 ft | 127 kts | 78° |
| 2026-04-19 09:24 | 34.78736 | -111.63064 | 7487 ft | 128 kts | 78° |
| 2026-04-19 09:24 | 34.79103 | -111.62099 | 7486 ft | 128 kts | 49° |
| 2026-04-19 09:24 | 34.79683 | -111.61292 | 7486 ft | 126 kts | 52° |
| 2026-04-19 09:24 | 34.80236 | -111.60475 | 7484 ft | 127 kts | 52° |
| 2026-04-19 09:25 | 34.80806 | -111.59634 | 7484 ft | 130 kts | 50° |
| 2026-04-19 09:25 | 34.81383 | -111.58785 | 7483 ft | 131 kts | 51° |
| 2026-04-19 09:25 | 34.81961 | -111.57935 | 7488 ft | 130 kts | 52° |
| 2026-04-19 09:25 | 34.82543 | -111.57076 | 7485 ft | 133 kts | 53° |
| 2026-04-19 09:26 | 34.83132 | -111.56208 | 7465 ft | 134 kts | 52° |
| 2026-04-19 09:26 | 34.83716 | -111.55348 | 7460 ft | 132 kts | 52° |
| 2026-04-19 09:26 | 34.84291 | -111.54501 | 7457 ft | 128 kts | 52° |
| 2026-04-19 09:26 | 34.84860 | -111.53663 | 7455 ft | 129 kts | 52° |
| 2026-04-19 09:27 | 34.85443 | -111.52809 | 7481 ft | 132 kts | 54° |
| 2026-04-19 09:27 | 34.86005 | -111.51972 | 7636 ft | 123 kts | 54° |
| 2026-04-19 09:27 | 34.86536 | -111.51188 | 7787 ft | 117 kts | 53° |
| 2026-04-19 09:27 | 34.87053 | -111.50427 | 7944 ft | 117 kts | 54° |
| 2026-04-19 09:28 | 34.87575 | -111.49659 | 8091 ft | 118 kts | 56° |
| 2026-04-19 09:28 | 34.88097 | -111.48888 | 8262 ft | 118 kts | 57° |
| 2026-04-19 09:28 | 34.88625 | -111.48109 | 8428 ft | 119 kts | 54° |
| 2026-04-19 09:28 | 34.89171 | -111.47298 | 8477 ft | 129 kts | 58° |
| 2026-04-19 09:29 | 34.89755 | -111.46431 | 8482 ft | 135 kts | 54° |
| 2026-04-19 09:29 | 34.90359 | -111.45537 | 8479 ft | 138 kts | 55° |
| 2026-04-19 09:29 | 34.90973 | -111.44630 | 8482 ft | 140 kts | 54° |
| 2026-04-19 09:29 | 34.91595 | -111.43709 | 8483 ft | 141 kts | 55° |
| 2026-04-19 09:30 | 34.92219 | -111.42789 | 8481 ft | 140 kts | 56° |
| 2026-04-19 09:30 | 34.92836 | -111.41877 | 8482 ft | 139 kts | 55° |
| 2026-04-19 09:30 | 34.93443 | -111.40976 | 8480 ft | 140 kts | 56° |
| 2026-04-19 09:30 | 34.94062 | -111.40060 | 8483 ft | 140 kts | 57° |
| 2026-04-19 09:31 | 34.94685 | -111.39138 | 8483 ft | 141 kts | 57° |
| 2026-04-19 09:31 | 34.95357 | -111.38269 | 8482 ft | 142 kts | 47° |
| 2026-04-19 09:31 | 34.96067 | -111.37440 | 8484 ft | 141 kts | 50° |
| 2026-04-19 09:31 | 34.96770 | -111.36598 | 8484 ft | 142 kts | 49° |
| 2026-04-19 09:32 | 34.97481 | -111.35756 | 8482 ft | 143 kts | 48° |
| 2026-04-19 09:32 | 34.98195 | -111.34913 | 8480 ft | 143 kts | 48° |
| 2026-04-19 09:32 | 34.98915 | -111.34064 | 8477 ft | 144 kts | 50° |
| 2026-04-19 09:32 | 34.99636 | -111.33214 | 8481 ft | 144 kts | 48° |
| 2026-04-19 09:33 | 35.00355 | -111.32368 | 8481 ft | 144 kts | 50° |
| 2026-04-19 09:33 | 35.01076 | -111.31519 | 8480 ft | 144 kts | 50° |
| 2026-04-19 09:33 | 35.01794 | -111.30670 | 8495 ft | 143 kts | 50° |
| 2026-04-19 09:33 | 35.02511 | -111.29822 | 8495 ft | 143 kts | 48° |
| 2026-04-19 09:34 | 35.03228 | -111.28978 | 8496 ft | 143 kts | 49° |
| 2026-04-19 09:34 | 35.03943 | -111.28134 | 8496 ft | 143 kts | 50° |
| 2026-04-19 09:34 | 35.04657 | -111.27288 | 8496 ft | 143 kts | 49° |
| 2026-04-19 09:34 | 35.05370 | -111.26446 | 8499 ft | 143 kts | 50° |
| 2026-04-19 09:35 | 35.06076 | -111.25612 | 8499 ft | 143 kts | 48° |
| 2026-04-19 09:35 | 35.06794 | -111.24766 | 8497 ft | 143 kts | 49° |
| 2026-04-19 09:35 | 35.07508 | -111.23922 | 8498 ft | 143 kts | 48° |
| 2026-04-19 09:35 | 35.08225 | -111.23078 | 8496 ft | 144 kts | 47° |
| 2026-04-19 09:36 | 35.08939 | -111.22222 | 8499 ft | 144 kts | 48° |
| 2026-04-19 09:36 | 35.09578 | -111.21287 | 8505 ft | 143 kts | 60° |
| 2026-04-19 09:36 | 35.09980 | -111.20189 | 8476 ft | 142 kts | 81° |
| 2026-04-19 09:36 | 35.09960 | -111.19014 | 8451 ft | 138 kts | 111° |
| 2026-04-19 09:37 | 35.09414 | -111.18103 | 8395 ft | 134 kts | 150° |
| 2026-04-19 09:37 | 35.08524 | -111.17920 | 8319 ft | 134 kts | 194° |
| 2026-04-19 09:37 | 35.07930 | -111.18797 | 8139 ft | 153 kts | 254° |
| 2026-04-19 09:37 | 35.07867 | -111.20094 | 8096 ft | 149 kts | 264° |
| 2026-04-19 09:38 | 35.07835 | -111.21343 | 8099 ft | 145 kts | 264° |
| 2026-04-19 09:38 | 35.07814 | -111.22564 | 8095 ft | 142 kts | 265° |
| 2026-04-19 09:38 | 35.07801 | -111.23745 | 8095 ft | 140 kts | 266° |
| 2026-04-19 09:38 | 35.07785 | -111.24919 | 8094 ft | 138 kts | 266° |
| 2026-04-19 09:39 | 35.07778 | -111.26098 | 8094 ft | 139 kts | 266° |
| 2026-04-19 09:39 | 35.07782 | -111.27300 | 8092 ft | 140 kts | 267° |
| 2026-04-19 09:39 | 35.07809 | -111.28472 | 8091 ft | 141 kts | 275° |
| 2026-04-19 09:39 | 35.08080 | -111.29626 | 8090 ft | 140 kts | 277° |
| 2026-04-19 09:40 | 35.07810 | -111.30679 | 8087 ft | 133 kts | 219° |
| 2026-04-19 09:40 | 35.06948 | -111.30841 | 8089 ft | 133 kts | 159° |
| 2026-04-19 09:40 | 35.06168 | -111.30230 | 8102 ft | 132 kts | 154° |
| 2026-04-19 09:40 | 35.05278 | -111.30199 | 8107 ft | 132 kts | 193° |
| 2026-04-19 09:41 | 35.04393 | -111.30474 | 8104 ft | 131 kts | 191° |
| 2026-04-19 09:41 | 35.03507 | -111.30723 | 8106 ft | 130 kts | 190° |
| 2026-04-19 09:41 | 35.02634 | -111.30981 | 8104 ft | 129 kts | 190° |
| 2026-04-19 09:41 | 35.01760 | -111.31235 | 8104 ft | 129 kts | 191° |
| 2026-04-19 09:42 | 35.00893 | -111.31500 | 8092 ft | 128 kts | 191° |
| 2026-04-19 09:42 | 35.00022 | -111.31764 | 8087 ft | 129 kts | 191° |
| 2026-04-19 09:42 | 34.99152 | -111.32019 | 8089 ft | 129 kts | 191° |
| 2026-04-19 09:42 | 34.98277 | -111.32280 | 8090 ft | 131 kts | 191° |
| 2026-04-19 09:43 | 34.97398 | -111.32557 | 8090 ft | 132 kts | 201° |
| 2026-04-19 09:43 | 34.96855 | -111.33441 | 8094 ft | 144 kts | 258° |
| 2026-04-19 09:43 | 34.97204 | -111.34601 | 8093 ft | 153 kts | 305° |
| 2026-04-19 09:43 | 34.98072 | -111.35305 | 8094 ft | 154 kts | 353° |
| 2026-04-19 09:44 | 34.99021 | -111.34887 | 8091 ft | 146 kts | 56° |
| 2026-04-19 09:44 | 34.99375 | -111.33809 | 8093 ft | 139 kts | 80° |
| 2026-04-19 09:44 | 34.99920 | -111.32814 | 8091 ft | 146 kts | 47° |
| 2026-04-19 09:44 | 35.00670 | -111.31976 | 8094 ft | 146 kts | 49° |
| 2026-04-19 09:45 | 35.01411 | -111.31115 | 8090 ft | 147 kts | 50° |
| 2026-04-19 09:45 | 35.02145 | -111.30254 | 8103 ft | 147 kts | 51° |
| 2026-04-19 09:45 | 35.02875 | -111.29392 | 8100 ft | 145 kts | 50° |
| 2026-04-19 09:45 | 35.03600 | -111.28537 | 8101 ft | 145 kts | 50° |
| 2026-04-19 09:46 | 35.04327 | -111.27678 | 8099 ft | 145 kts | 49° |
| 2026-04-19 09:46 | 35.05055 | -111.26821 | 8106 ft | 145 kts | 47° |
| 2026-04-19 09:46 | 35.05782 | -111.25962 | 8105 ft | 145 kts | 50° |
| 2026-04-19 09:46 | 35.06508 | -111.25102 | 8105 ft | 146 kts | 49° |
| 2026-04-19 09:47 | 35.07237 | -111.24242 | 8108 ft | 145 kts | 49° |
| 2026-04-19 09:47 | 35.07719 | -111.23676 | 8103 ft | 145 kts | 44° |
| 2026-04-19 09:47 | 35.08450 | -111.22820 | 8103 ft | 146 kts | 47° |
| 2026-04-19 09:47 | 35.09179 | -111.21948 | 8104 ft | 147 kts | 46° |
| 2026-04-19 09:48 | 35.09963 | -111.21152 | 8098 ft | 148 kts | 25° |
| 2026-04-19 09:48 | 35.10961 | -111.21198 | 8094 ft | 148 kts | 333° |
| 2026-04-19 09:48 | 35.11767 | -111.21943 | 8095 ft | 145 kts | 314° |
| 2026-04-19 09:48 | 35.12520 | -111.22769 | 8104 ft | 146 kts | 317° |
| 2026-04-19 09:49 | 35.13296 | -111.23565 | 8106 ft | 146 kts | 318° |
| 2026-04-19 09:49 | 35.14085 | -111.24355 | 8107 ft | 146 kts | 318° |
| 2026-04-19 09:49 | 35.14743 | -111.25253 | 8103 ft | 143 kts | 294° |
| 2026-04-19 09:49 | 35.15149 | -111.26358 | 8104 ft | 143 kts | 291° |
| 2026-04-19 09:50 | 35.15591 | -111.27453 | 8107 ft | 144 kts | 294° |
| 2026-04-19 09:50 | 35.16054 | -111.28535 | 8108 ft | 144 kts | 295° |
| 2026-04-19 09:50 | 35.16524 | -111.29614 | 8108 ft | 144 kts | 295° |
| 2026-04-19 09:50 | 35.16995 | -111.30693 | 8108 ft | 144 kts | 295° |
| 2026-04-19 09:51 | 35.17464 | -111.31768 | 8108 ft | 143 kts | 295° |
| 2026-04-19 09:51 | 35.17933 | -111.32843 | 8107 ft | 143 kts | 295° |
| 2026-04-19 09:51 | 35.18403 | -111.33918 | 8107 ft | 143 kts | 295° |
| 2026-04-19 09:51 | 35.18871 | -111.34993 | 8107 ft | 143 kts | 295° |
| 2026-04-19 09:52 | 35.19341 | -111.36069 | 8107 ft | 143 kts | 295° |
| 2026-04-19 09:52 | 35.19811 | -111.37146 | 8108 ft | 144 kts | 295° |
| 2026-04-19 09:52 | 35.20281 | -111.38226 | 8108 ft | 144 kts | 295° |
| 2026-04-19 09:52 | 35.20752 | -111.39306 | 8108 ft | 144 kts | 295° |
| 2026-04-19 09:53 | 35.21221 | -111.40383 | 8107 ft | 144 kts | 295° |
| 2026-04-19 09:53 | 35.21693 | -111.41467 | 8111 ft | 145 kts | 295° |
| 2026-04-19 09:53 | 35.22175 | -111.42575 | 7961 ft | 154 kts | 295° |
| 2026-04-19 09:53 | 35.22693 | -111.43767 | 7702 ft | 162 kts | 296° |
| 2026-04-19 09:54 | 35.23227 | -111.44990 | 7501 ft | 161 kts | 296° |
| 2026-04-19 09:54 | 35.23731 | -111.46147 | 7500 ft | 152 kts | 296° |
| 2026-04-19 09:54 | 35.24226 | -111.47285 | 7523 ft | 147 kts | 296° |
| 2026-04-19 09:54 | 35.24695 | -111.48366 | 7590 ft | 141 kts | 296° |
| 2026-04-19 09:55 | 35.25146 | -111.49403 | 7658 ft | 139 kts | 296° |
| 2026-04-19 09:55 | 35.25599 | -111.50449 | 7726 ft | 138 kts | 296° |
| 2026-04-19 09:55 | 35.26041 | -111.51488 | 7791 ft | 137 kts | 291° |
| 2026-04-19 09:55 | 35.26060 | -111.52618 | 7784 ft | 135 kts | 245° |
| 2026-04-19 09:56 | 35.25484 | -111.53499 | 7793 ft | 134 kts | 221° |
| 2026-04-19 09:56 | 35.24804 | -111.54288 | 7792 ft | 135 kts | 223° |
| 2026-04-19 09:56 | 35.24129 | -111.55085 | 7792 ft | 135 kts | 223° |
| 2026-04-19 09:56 | 35.23453 | -111.55883 | 7794 ft | 135 kts | 222° |
| 2026-04-19 09:57 | 35.22770 | -111.56688 | 7796 ft | 137 kts | 222° |
| 2026-04-19 09:57 | 35.22087 | -111.57495 | 7796 ft | 136 kts | 223° |
| 2026-04-19 09:57 | 35.21405 | -111.58300 | 7797 ft | 136 kts | 223° |
| 2026-04-19 09:57 | 35.20722 | -111.59106 | 7795 ft | 136 kts | 222° |
| 2026-04-19 09:58 | 35.20040 | -111.59910 | 7796 ft | 136 kts | 223° |
| 2026-04-19 09:58 | 35.19357 | -111.60716 | 7796 ft | 136 kts | 223° |
| 2026-04-19 09:58 | 35.18684 | -111.61509 | 7796 ft | 136 kts | 223° |
| 2026-04-19 09:58 | 35.18003 | -111.62313 | 7792 ft | 136 kts | 223° |
| 2026-04-19 09:59 | 35.17425 | -111.63166 | 7590 ft | 132 kts | 230° |
| 2026-04-19 09:59 | 35.16840 | -111.63954 | 7490 ft | 109 kts | 221° |
| 2026-04-19 09:59 | 35.16337 | -111.64523 | 7447 ft | 92 kts | 217° |
| 2026-04-19 09:59 | 35.15845 | -111.65027 | 7263 ft | 96 kts | 221° |
| 2026-04-19 10:00 | 35.15351 | -111.65513 | 7169 ft | 90 kts | 217° |
| 2026-04-19 10:00 | 35.14889 | -111.66005 | 7054 ft | 81 kts | 221° |
| 2026-04-19 10:00 | 35.14584 | -111.66346 | 7005 ft | 0 kts | 222° |